Terminal Aerodrome Forecast
Issued by NWS Charleston, WV

Current Version | Previous Version | Text Only | Print | Product List | Glossary Off
Versions: 1 2 3 4 5 6 7 8 9 10 11 12 13 14 15 16 17 18 19 20 21 22 23 24 25 26 27 28 29 30 31 32

000
FTUS41 KRLX 201800 AAA
TAFHTS
TAF AMD
KHTS 201841Z 2019/2118 00000KT 5SM BR BKN006 OVC025
      TEMPO 2019/2020 6SM BR SCT006 OVC025
     FM210300 00000KT 3SM BR SCT040
     FM210500 00000KT 2SM BR SCT001
     FM210600 00000KT 1/2SM FG OVC001
     FM210700 00000KT 1/4SM FG OVC001
     FM211300 00000KT 2SM BR BKN001
     FM211330 VRB03KT P6SM SCT040=

USA.gov is the U.S. government's official web portal to all federal, state and local government web resources and services.